Catàleg de serveis del Meteocat
Campanya meteocatpedra

Dades de l'estació automàtica Algerri

?
?
Resum diari 21:00 TU
Dades diàries de l'estació meteorològica
Temperatura mitjana 24.6 °C
Temperatura màxima 31.4 °C 15:44 TU
Temperatura mínima 18.7 °C 5:03 TU
Humitat relativa mitjana 55%
Precipitació acumulada 0.0 mm
Ratxa màxima del vent (2 m) 19.8 km/h - 242º 10:02 TU
Irradiació solar global 29.1 MJ/m2

El tram horari està expressat en Temps Universal (TU). Cal sumar una hora en horari d'hivern i dues en horari d'estiu per passar a l'hora oficial.

Algerri

Metadades estació meteorol´gica
Municipi Algerri
Comarca Noguera
Altitud 301 m
Data alta 13.12.2000
Estat actual Operativa
Dades de període
Període
TU
TM
°C
TX
°C
TN
°C
HRM
%
PPT
mm
VVM (2 m)
km/h
DVM (2 m)
graus
VVX (2 m)
km/h
RS
W/m2
00:00 - 00:30 21.0 22.1 20.7 67 0.0 6.8 263 11.5 0
00:30 - 01:00 20.8 20.9 20.7 68 0.0 1.4 309 6.5 0
01:00 - 01:30 21.0 21.2 20.6 65 0.0 1.1 277 4.7 0
01:30 - 02:00 19.9 20.9 19.3 69 0.0 1.4 344 3.2 0
02:00 - 02:30 20.1 20.4 19.8 69 0.0 1.1 338 2.5 0
02:30 - 03:00 20.2 20.6 20.0 71 0.0 0.4 349 2.2 0
03:00 - 03:30 20.3 20.6 20.0 72 0.0 0.4 234 2.5 0
03:30 - 04:00 19.7 20.0 19.1 76 0.0 2.2 219 9.0 0
04:00 - 04:30 19.4 19.9 18.9 79 0.0 2.9 236 9.4 0
04:30 - 05:00 19.0 19.4 18.7 80 0.0 4.0 235 8.6 4
05:00 - 05:30 18.8 19.1 18.7 79 0.0 3.2 248 8.3 47
05:30 - 06:00 19.1 19.3 19.0 77 0.0 3.2 256 8.6 87
06:00 - 06:30 19.4 19.5 19.3 75 0.0 2.9 252 7.9 162
06:30 - 07:00 19.8 20.7 19.5 73 0.0 4.0 252 9.4 273
07:00 - 07:30 20.4 20.8 20.1 71 0.0 4.7 215 9.0 397
07:30 - 08:00 20.9 21.3 20.6 70 0.0 4.0 216 9.7 486
08:00 - 08:30 21.8 22.4 21.2 67 0.0 4.3 197 11.5 569
08:30 - 09:00 22.5 23.0 21.9 65 0.0 5.4 220 13.0 643
09:00 - 09:30 23.0 23.4 22.6 62 0.0 6.8 233 18.0 717
09:30 - 10:00 23.8 24.5 23.4 59 0.0 7.6 237 16.2 806
10:00 - 10:30 24.7 25.4 24.4 57 0.0 9.4 234 19.8 869
10:30 - 11:00 25.5 25.8 25.1 54 0.0 7.9 241 19.8 903
11:00 - 11:30 26.1 26.5 25.4 53 0.0 7.2 251 16.6 923
11:30 - 12:00 26.9 27.8 26.4 51 0.0 8.6 243 18.7 945
12:00 - 12:30 27.6 28.1 27.1 49 0.0 8.3 244 19.1 961
12:30 - 13:00 27.9 28.6 26.6 49 0.0 7.6 247 17.6 953
13:00 - 13:30 28.6 29.3 28.1 47 0.0 8.6 242 18.7 932
13:30 - 14:00 29.3 29.7 28.7 43 0.0 8.3 241 18.0 890
14:00 - 14:30 29.9 30.4 29.3 38 0.0 8.6 248 19.4 832
14:30 - 15:00 30.1 30.6 29.8 37 0.0 7.6 232 17.6 755
15:00 - 15:30 30.8 31.3 30.1 32 0.0 8.3 242 17.6 720
15:30 - 16:00 31.2 31.4 30.9 28 0.0 9.0 252 19.1 646
16:00 - 16:30 31.0 31.1 30.7 29 0.0 9.4 246 19.4 550
16:30 - 17:00 31.1 31.4 30.8 28 0.0 8.3 261 18.0 453
17:00 - 17:30 31.1 31.2 30.9 29 0.0 7.6 242 15.1 351
17:30 - 18:00 30.9 31.3 30.7 29 0.0 5.8 237 12.2 236
18:00 - 18:30 30.5 31.0 30.2 29 0.0 3.6 253 9.0 95
18:30 - 19:00 29.8 30.3 28.7 30 0.0 3.2 246 8.6 23
19:00 - 19:30 27.3 29.0 25.3 40 0.0 1.1 18 3.2 6
19:30 - 20:00 24.9 25.3 24.3 42 0.0 2.2 1 5.0 0
20:00 - 20:30 24.5 25.1 24.2 40 0.0 2.2 340 4.0 0
20:30 - 21:00 24.1 24.8 23.0 50 0.0 4.3 73 9.4 0
21:00 - 21:30 23.6 24.0 22.8 62 0.0 4.0 88 9.0 0
21:30 - 22:00 23.5 23.8 22.9 63 0.0 5.4 80 15.1 0

Les dades en taronja només han passat un control de qualitat automàtic. Resta pendent la seva validació definitiva.